Торонто, Ontario

03:15 PM EST на 12 Ноември, 2018 (GMT -0500)
Rapids Queen at QCYC | | Change Station

Elev 252 ft 43.63 °N, 79.36 °W | Updated 21 seconds ago

Mostly Cloudy
Претежно облачно
43 °F
Feels Like 40 °F
С
5
Ветер Променлив Ветер from ЈЈИ
Gusts 0.0 mph

Денес
High -- | Low -- °F
--% Chance of Precip.
Вчера
High -- | Low -- °F
Precip. -- инчи
Притисок 30.27 инчи
Видливост 9.0 миљи
Облаци Few 4300 ft
Претежно облачно 6000 ft
Претежно облачно 11000 ft
Лични чувство за темп. со ветерот 40 °F
Точка на kондензација 31 °F
Влажност 62%
Дожд 0.09 инчи
Височина на снег Not available.
7:07 AM 4:55 PM
Првиот квартал, 25% visible
METAR CYTZ 122000Z AUTO 17003KT 9SM FEW043 BKN060 BKN110 06/M03 A3025 RMK SLP248
Притисок 30.27 инчи
Видливост 9.0 миљи
Облаци Few 4300 ft
Претежно облачно 6000 ft
Претежно облачно 11000 ft
Лични чувство за темп. со ветерот 40 °F
Точка на kондензација 31 °F
Влажност 62%
Дожд 0.09 инчи
Височина на снег Not available.
7:07 AM 4:55 PM
Првиот квартал, 25% visible
METAR CYTZ 122000Z AUTO 17003KT 9SM FEW043 BKN060 BKN110 06/M03 A3025 RMK SLP248

Get Severe Weather Alerts

Thanks for signing up!

Be on the lookout for a verification email in your inbox.

You'll start receiving the daily forecast at 6 AM.

×

10-Day Weather Forecast

Almanac

Астрономијата

Nov. 12, 2018 Изгревање Заоѓање
Актуелно време
Граѓанскиот самрак
Наутички самрак
Астрономски самрак
Месечината
Должина на видливата светлина
Должина на денот
Tomorrow will be .
, % of the Moon is Illuminated

Екстреми денес

Country Highs Country Lows

Community

WunderPhotos

Category 6

Welcome to Category 6. This is the collective home for Weather Underground's featured writeups by Dr. Jeff Masters (right), Bob Henson (left), Chris Burt, and other regular contributors.

Nearby

Квалитетот на воздухот

  Квалитетот на воздухот AQ индекс Загадувач
Not available.

Височина на снег

Station Depth Висина

Earthquake Activity

Град Distance Mag. Time & Date
Minimum magnitude displayed is 2.5.

Coastal Water Temperatures

Место Температура

Stations

Nearby Weather Stations

Локација на станицата Темп. Лични чувство за темп. со ветерот Точка на kондензација Влажност Ветер Precip. Elev Ажурирани Тип
                   

Watches & Warnings

There are currently no watches in effect.